Time;durP1;ratioP1;P1;durP2;ratioP2;P2;SDS_P1;SDS_P2;PMS_P1;PMS_P2;Temp;Humidity;BMP_temperature;BMP_pressure;BME280_temperature;BME280_humidity;BME280_pressure;Samples;Min_cycle;Max_cycle;Signal;HPM_P1;HPM_P2
2022/03/16 00:02:07;;;;;;;15.43;4.88;;;11.00;44.10;;;;;;5093404;28;20176;-75
2022/03/16 00:04:35;;;;;;;13.20;4.80;;;11.00;46.20;;;;;;5090200;28;20625;-75
2022/03/16 00:07:02;;;;;;;17.98;6.40;;;11.00;47.00;;;;;;5089347;28;20054;-75
2022/03/16 00:09:29;;;;;;;12.48;6.03;;;10.80;49.00;;;;;;5089847;28;20051;-75
2022/03/16 00:11:56;;;;;;;12.30;5.40;;;10.90;49.10;;;;;;5106687;28;20050;-75
2022/03/16 00:14:23;;;;;;;13.60;5.80;;;10.80;51.30;;;;;;5090128;28;20043;-75
2022/03/16 00:16:50;;;;;;;14.90;6.05;;;10.70;51.80;;;;;;5090184;28;20036;-75
2022/03/16 00:19:17;;;;;;;12.20;6.07;;;10.70;52.80;;;;;;5075115;28;20048;-75
2022/03/16 00:21:44;;;;;;;13.45;5.82;;;10.60;53.00;;;;;;5092871;28;20559;-76
2022/03/16 00:24:11;;;;;;;12.30;5.40;;;10.50;54.20;;;;;;5094998;28;20660;-75
2022/03/16 00:26:39;;;;;;;12.85;5.53;;;10.60;54.00;;;;;;5090682;28;20036;-75
2022/03/16 00:29:06;;;;;;;14.23;6.18;;;10.60;54.60;;;;;;5092788;28;20036;-75
2022/03/16 00:31:34;;;;;;;13.75;6.70;;;10.50;54.60;;;;;;5090117;28;20106;-76
2022/03/16 00:34:02;;;;;;;12.15;6.15;;;10.50;55.70;;;;;;5090039;28;20047;-76
2022/03/16 00:36:29;;;;;;;17.92;6.32;;;10.50;56.00;;;;;;5089298;28;20052;-76
2022/03/16 00:38:56;;;;;;;14.38;7.00;;;10.50;56.50;;;;;;5100721;28;20055;-76
2022/03/16 00:41:23;;;;;;;18.55;7.40;;;10.30;56.70;;;;;;5081584;28;20043;-75
2022/03/16 00:43:50;;;;;;;12.90;6.47;;;10.20;57.30;;;;;;5095857;28;20031;-76
2022/03/16 00:46:17;;;;;;;16.90;7.03;;;10.30;57.60;;;;;;5096346;28;22232;-76
2022/03/16 00:48:44;;;;;;;14.05;6.40;;;10.40;57.50;;;;;;5077575;28;20035;-75
2022/03/16 00:51:12;;;;;;;18.33;7.00;;;10.30;58.50;;;;;;5096490;27;20043;-76
2022/03/16 00:53:40;;;;;;;13.85;6.10;;;10.20;59.50;;;;;;5082745;27;20390;-76
2022/03/16 00:56:08;;;;;;;16.63;7.95;;;10.20;59.70;;;;;;5100018;27;20040;-76
2022/03/16 00:58:36;;;;;;;16.63;6.38;;;10.10;61.20;;;;;;5098723;27;22171;-76
2022/03/16 01:01:05;;;;;;;16.08;6.68;;;10.10;62.10;;;;;;5080659;27;20051;-76
2022/03/16 01:03:34;;;;;;;18.65;6.20;;;10.00;63.10;;;;;;5081204;27;20066;-76
2022/03/16 01:06:01;;;;;;;23.20;7.00;;;9.80;63.80;;;;;;5096283;27;20042;-76
2022/03/16 01:08:29;;;;;;;15.70;6.30;;;9.70;63.40;;;;;;5084151;27;20035;-76
2022/03/16 01:10:56;;;;;;;14.45;6.85;;;9.60;63.40;;;;;;5100154;27;20751;-76
2022/03/16 01:13:24;;;;;;;14.30;6.03;;;9.70;63.50;;;;;;5101466;27;20993;-75
2022/03/16 01:15:51;;;;;;;12.60;6.68;;;9.60;63.40;;;;;;5098098;27;20043;-76
2022/03/16 01:18:18;;;;;;;15.38;6.70;;;9.60;63.60;;;;;;5096186;27;20047;-75
2022/03/16 01:20:47;;;;;;;18.52;7.05;;;9.70;63.70;;;;;;5097261;27;20047;-75
2022/03/16 01:23:14;;;;;;;18.25;7.55;;;9.80;64.30;;;;;;5099649;27;20108;-75
2022/03/16 01:25:41;;;;;;;15.05;7.68;;;9.80;63.90;;;;;;5099497;27;20056;-76
2022/03/16 01:28:09;;;;;;;12.88;7.30;;;9.80;64.10;;;;;;5112752;27;20048;-76
2022/03/16 01:30:35;;;;;;;16.02;6.90;;;9.80;63.90;;;;;;5097872;27;20062;-75
2022/03/16 01:33:04;;;;;;;16.25;7.22;;;9.70;64.40;;;;;;5081798;27;20563;-76
2022/03/16 01:35:32;;;;;;;20.92;7.70;;;9.80;65.40;;;;;;5100217;27;20051;-76
2022/03/16 01:37:59;;;;;;;15.93;7.63;;;9.70;65.30;;;;;;5100467;27;20066;-76
2022/03/16 01:40:30;;;;;;;25.73;7.40;;;9.80;64.60;;;;;;5094944;27;20043;-76
2022/03/16 01:42:57;;;;;;;17.27;8.07;;;9.90;65.00;;;;;;5099187;27;20110;-76
2022/03/16 01:45:24;;;;;;;16.23;7.07;;;10.00;64.80;;;;;;5081596;27;20039;-76
2022/03/16 01:47:51;;;;;;;17.77;7.63;;;10.20;65.40;;;;;;5096476;27;20808;-76
2022/03/16 01:50:18;;;;;;;17.08;7.55;;;10.30;66.20;;;;;;5099444;27;20100;-76
2022/03/16 01:52:46;;;;;;;20.88;8.10;;;10.40;64.80;;;;;;5079962;27;20092;-76
2022/03/16 01:55:13;;;;;;;16.50;7.93;;;10.40;65.90;;;;;;5085378;27;20096;-76
2022/03/16 01:57:45;;;;;;;21.23;8.68;;;10.40;64.00;;;;;;5096892;27;20050;-76
2022/03/16 02:00:13;;;;;;;18.87;9.53;;;10.40;63.60;;;;;;5095590;27;20058;-76
2022/03/16 02:02:42;;;;;;;18.10;8.32;;;10.10;64.40;;;;;;5098205;27;20052;-76
2022/03/16 02:05:10;;;;;;;21.63;8.60;;;10.00;64.60;;;;;;5083289;27;20049;-76
2022/03/16 02:07:38;;;;;;;16.65;7.72;;;10.10;64.40;;;;;;5114499;27;20043;-75
2022/03/16 02:10:06;;;;;;;18.95;7.95;;;9.90;64.90;;;;;;5117055;27;20028;-76
2022/03/16 02:12:52;;;;;;;16.90;8.35;;;9.90;65.70;;;;;;5096208;27;20111;-76
2022/03/16 02:15:21;;;;;;;17.40;7.82;;;9.90;66.30;;;;;;5079533;27;20058;-76
2022/03/16 02:17:50;;;;;;;19.27;8.45;;;10.20;66.10;;;;;;5095785;27;20046;-75
2022/03/16 02:20:18;;;;;;;16.63;7.65;;;10.30;66.60;;;;;;5100744;27;20039;-75
2022/03/16 02:23:02;;;;;;;20.02;9.13;;;10.40;66.80;;;;;;5114200;27;20084;-75
2022/03/16 02:25:30;;;;;;;16.80;8.57;;;10.40;67.80;;;;;;5092955;27;20047;-76
2022/03/16 02:27:59;;;;;;;22.02;8.90;;;10.40;67.50;;;;;;5096964;27;20047;-76
2022/03/16 02:30:29;;;;;;;16.30;9.32;;;10.20;69.30;;;;;;5100023;27;20044;-76
2022/03/16 02:32:57;;;;;;;19.65;8.77;;;10.10;70.10;;;;;;5096578;27;20046;-76
2022/03/16 02:35:24;;;;;;;20.83;9.02;;;10.20;69.20;;;;;;5114162;27;20108;-76
2022/03/16 02:37:51;;;;;;;17.50;9.30;;;10.20;70.80;;;;;;5098228;27;20070;-76
2022/03/16 02:40:23;;;;;;;18.60;9.45;;;9.80;72.20;;;;;;5099106;27;20554;-76
2022/03/16 02:42:50;;;;;;;20.17;9.45;;;9.60;72.70;;;;;;5098520;27;20460;-76
2022/03/16 02:45:18;;;;;;;20.67;9.40;;;9.60;72.40;;;;;;5116292;27;20043;-76
2022/03/16 02:47:45;;;;;;;14.65;7.57;;;9.60;72.70;;;;;;5114439;27;20031;-76
2022/03/16 02:50:16;;;;;;;19.33;9.07;;;9.60;73.70;;;;;;5099412;27;20055;-76
2022/03/16 02:52:44;;;;;;;20.08;8.73;;;9.60;73.60;;;;;;5116414;27;20039;-75
2022/03/16 02:55:32;;;;;;;15.70;7.90;;;9.80;72.30;;;;;;5112994;27;20188;-75
2022/03/16 02:58:00;;;;;;;18.75;8.02;;;10.10;71.00;;;;;;5116548;27;20833;-76
2022/03/16 03:00:28;;;;;;;18.27;8.50;;;10.00;70.80;;;;;;5096549;27;20051;-75
2022/03/16 03:02:55;;;;;;;18.27;9.10;;;10.00;70.70;;;;;;5080262;27;20054;-76
2022/03/16 03:05:22;;;;;;;22.77;8.32;;;10.00;70.40;;;;;;5084458;27;20497;-75
2022/03/16 03:07:49;;;;;;;17.65;8.85;;;10.00;71.00;;;;;;5112377;27;20655;-75
2022/03/16 03:10:17;;;;;;;20.48;8.57;;;10.10;70.80;;;;;;5115484;27;20322;-75
2022/03/16 03:12:44;;;;;;;23.00;9.57;;;10.00;70.50;;;;;;5100219;27;20088;-75
2022/03/16 03:15:13;;;;;;;22.92;8.63;;;10.00;70.80;;;;;;5113480;27;20043;-75
2022/03/16 03:17:41;;;;;;;17.52;7.68;;;9.80;69.90;;;;;;5115698;27;20039;-75
2022/03/16 03:20:10;;;;;;;21.63;8.90;;;9.70;70.10;;;;;;5095568;27;20436;-75
2022/03/16 03:22:37;;;;;;;19.27;8.88;;;9.50;71.40;;;;;;5115863;27;20050;-75
2022/03/16 03:25:09;;;;;;;21.38;9.32;;;9.50;70.50;;;;;;5082226;28;20078;-75
2022/03/16 03:27:36;;;;;;;22.30;8.60;;;9.50;71.10;;;;;;5098117;27;20054;-75
2022/03/16 03:30:04;;;;;;;21.48;8.55;;;9.40;70.80;;;;;;5099393;27;22522;-75
2022/03/16 03:32:31;;;;;;;21.13;9.00;;;9.30;71.10;;;;;;5084416;27;20852;-75
2022/03/16 03:34:58;;;;;;;19.27;8.20;;;9.30;71.80;;;;;;5082854;28;20894;-75
2022/03/16 03:37:28;;;;;;;16.42;8.00;;;9.30;71.90;;;;;;5114228;28;20933;-76
2022/03/16 03:39:55;;;;;;;20.27;8.85;;;9.20;72.80;;;;;;5084824;28;20231;-76
2022/03/16 03:42:23;;;;;;;20.17;8.73;;;9.20;73.60;;;;;;5078628;28;20055;-76
2022/03/16 03:44:50;;;;;;;24.02;10.45;;;9.30;72.90;;;;;;5100336;28;20067;-75
2022/03/16 03:47:17;;;;;;;27.38;11.20;;;9.20;74.90;;;;;;5083386;28;20043;-75
2022/03/16 03:49:44;;;;;;;28.20;11.68;;;9.30;73.90;;;;;;5091939;28;20062;-76
2022/03/16 03:52:11;;;;;;;24.60;10.00;;;9.30;74.90;;;;;;5113659;28;20043;-76
2022/03/16 03:54:40;;;;;;;25.67;9.85;;;9.30;74.00;;;;;;5085717;28;20028;-76
2022/03/16 03:57:08;;;;;;;20.90;8.93;;;9.10;75.00;;;;;;5085181;28;20058;-76
2022/03/16 03:59:35;;;;;;;20.90;9.50;;;9.00;75.90;;;;;;5097769;28;20039;-76
2022/03/16 04:02:02;;;;;;;24.20;9.35;;;9.10;75.20;;;;;;5083468;28;20055;-76
2022/03/16 04:04:29;;;;;;;21.05;8.55;;;9.20;73.90;;;;;;5096265;28;20050;-76
2022/03/16 04:06:57;;;;;;;21.05;8.48;;;9.20;73.10;;;;;;5097408;28;20142;-76
2022/03/16 04:09:24;;;;;;;20.45;9.30;;;9.40;72.10;;;;;;5096615;28;20646;-76
2022/03/16 04:11:52;;;;;;;22.33;9.70;;;9.20;72.80;;;;;;5114872;28;20059;-76
2022/03/16 04:14:19;;;;;;;18.80;9.38;;;9.10;73.80;;;;;;5082238;28;20043;-76
2022/03/16 04:16:46;;;;;;;22.33;9.82;;;9.00;73.30;;;;;;5085105;28;20048;-76
2022/03/16 04:19:13;;;;;;;19.30;8.73;;;9.20;72.50;;;;;;5099315;28;20055;-75
2022/03/16 04:21:41;;;;;;;22.42;9.00;;;9.20;72.60;;;;;;5093063;28;20975;-76
2022/03/16 04:24:08;;;;;;;17.83;8.50;;;9.30;73.00;;;;;;5110770;28;20054;-75
2022/03/16 04:26:35;;;;;;;22.33;9.38;;;9.20;72.50;;;;;;5101718;27;20044;-76
2022/03/16 04:29:02;;;;;;;19.65;8.95;;;9.10;73.00;;;;;;5117133;27;20043;-76
2022/03/16 04:31:29;;;;;;;16.45;9.40;;;9.00;73.70;;;;;;5092108;27;20076;-76
2022/03/16 04:33:57;;;;;;;26.42;9.38;;;9.00;73.30;;;;;;5115813;27;20066;-76
2022/03/16 04:36:26;;;;;;;22.48;9.30;;;9.00;73.20;;;;;;5105096;27;20035;-76
2022/03/16 04:38:53;;;;;;;23.60;9.27;;;9.10;73.20;;;;;;5102830;27;20112;-76
2022/03/16 04:41:20;;;;;;;24.83;8.85;;;9.10;73.60;;;;;;5080225;27;20051;-76
2022/03/16 04:43:47;;;;;;;17.02;8.73;;;8.90;74.30;;;;;;5096608;27;20047;-76
2022/03/16 04:46:14;;;;;;;22.88;8.65;;;8.90;74.80;;;;;;5114639;27;20063;-75
2022/03/16 04:48:42;;;;;;;28.65;8.80;;;8.80;75.60;;;;;;5084362;27;20138;-75
2022/03/16 04:51:09;;;;;;;24.52;8.43;;;8.80;75.80;;;;;;5105431;27;20616;-75
2022/03/16 04:53:36;;;;;;;17.83;9.30;;;8.70;76.20;;;;;;5084656;27;20040;-75
2022/03/16 04:56:03;;;;;;;22.42;9.43;;;8.60;77.40;;;;;;5116065;27;20051;-75
2022/03/16 04:58:31;;;;;;;20.30;9.13;;;8.70;77.30;;;;;;5099967;27;20054;-76
2022/03/16 05:00:59;;;;;;;19.48;8.43;;;8.80;77.50;;;;;;5100808;27;20413;-75
2022/03/16 05:03:26;;;;;;;19.52;8.73;;;8.90;77.80;;;;;;5083535;27;20047;-75
2022/03/16 05:05:53;;;;;;;22.35;9.40;;;8.70;78.80;;;;;;5101568;27;20119;-76
2022/03/16 05:08:20;;;;;;;18.10;8.52;;;8.90;78.90;;;;;;5101485;27;20035;-75
2022/03/16 05:10:47;;;;;;;19.45;8.68;;;9.00;79.80;;;;;;5100517;27;20067;-75
2022/03/16 05:13:15;;;;;;;20.95;9.20;;;9.10;78.80;;;;;;5102942;27;20069;-75
2022/03/16 05:15:42;;;;;;;16.35;8.10;;;9.20;78.50;;;;;;5087686;27;20063;-76
2022/03/16 05:18:09;;;;;;;23.08;9.88;;;9.00;79.40;;;;;;5116436;27;20043;-75
2022/03/16 05:20:36;;;;;;;22.38;10.27;;;8.80;80.80;;;;;;5101775;27;20043;-75
2022/03/16 05:23:03;;;;;;;26.45;12.10;;;9.00;80.80;;;;;;5102121;27;20041;-75
2022/03/16 05:25:30;;;;;;;22.92;11.00;;;9.20;80.10;;;;;;5091465;27;20831;-76
2022/03/16 05:27:58;;;;;;;23.45;10.10;;;9.30;79.70;;;;;;5100743;27;20572;-76
2022/03/16 05:30:26;;;;;;;24.20;10.15;;;9.10;80.50;;;;;;5101472;27;20214;-75
2022/03/16 05:32:56;;;;;;;21.83;10.40;;;9.10;80.40;;;;;;5117010;27;20059;-75
2022/03/16 05:35:23;;;;;;;20.17;9.07;;;8.80;82.10;;;;;;5097309;27;20526;-76
2022/03/16 05:37:50;;;;;;;22.23;12.20;;;8.60;83.70;;;;;;5112979;27;20065;-75
2022/03/16 05:40:18;;;;;;;20.13;10.30;;;8.80;83.30;;;;;;5098791;27;20059;-75
2022/03/16 05:42:45;;;;;;;30.70;12.00;;;9.10;82.60;;;;;;5114384;27;20039;-76
2022/03/16 05:45:12;;;;;;;27.83;13.43;;;9.30;82.00;;;;;;5110962;27;20044;-75
2022/03/16 05:47:39;;;;;;;26.23;12.38;;;9.40;81.30;;;;;;5082098;27;20398;-75
2022/03/16 05:50:07;;;;;;;20.27;10.25;;;9.50;81.30;;;;;;5088462;27;20047;-76
2022/03/16 05:52:35;;;;;;;17.23;9.13;;;9.60;81.00;;;;;;5115909;27;20950;-75
2022/03/16 05:55:03;;;;;;;18.98;9.27;;;9.50;81.20;;;;;;5099600;27;20038;-75
2022/03/16 05:57:30;;;;;;;18.17;8.65;;;9.30;82.00;;;;;;5080984;27;20131;-75
2022/03/16 05:59:57;;;;;;;19.60;8.93;;;9.40;82.30;;;;;;5097130;27;20047;-76
2022/03/16 06:02:24;;;;;;;21.13;9.75;;;9.40;82.60;;;;;;5078764;27;20043;-75
2022/03/16 06:04:51;;;;;;;23.75;9.05;;;9.40;83.50;;;;;;5097963;27;20593;-75
2022/03/16 06:07:18;;;;;;;19.88;8.85;;;9.40;84.10;;;;;;5114277;27;20035;-75
2022/03/16 06:09:45;;;;;;;23.77;9.20;;;9.40;84.50;;;;;;5086261;27;20061;-75
2022/03/16 06:12:12;;;;;;;21.40;9.40;;;9.50;84.60;;;;;;5115437;27;20043;-75
2022/03/16 06:14:39;;;;;;;21.88;9.90;;;9.60;85.30;;;;;;5114367;27;20324;-76
2022/03/16 06:17:06;;;;;;;22.20;9.60;;;9.60;84.80;;;;;;5083771;27;20125;-75
2022/03/16 06:19:33;;;;;;;17.35;9.32;;;9.60;84.50;;;;;;5114508;27;20046;-75
2022/03/16 06:22:01;;;;;;;17.92;8.55;;;9.70;84.30;;;;;;5096788;27;20062;-75
2022/03/16 06:24:28;;;;;;;20.35;9.45;;;9.60;84.10;;;;;;5095603;27;20072;-75
2022/03/16 06:26:56;;;;;;;24.38;11.25;;;9.60;84.00;;;;;;5113132;27;20044;-75
2022/03/16 06:29:23;;;;;;;24.75;9.88;;;9.60;83.70;;;;;;5114923;27;20365;-76
2022/03/16 06:31:50;;;;;;;25.50;12.75;;;9.70;83.30;;;;;;5098964;27;20559;-76
2022/03/16 06:34:17;;;;;;;21.63;11.07;;;9.70;83.20;;;;;;5084207;27;20818;-76
2022/03/16 06:36:45;;;;;;;23.65;10.82;;;9.70;83.20;;;;;;5113819;27;20051;-75
2022/03/16 06:39:12;;;;;;;23.13;13.02;;;9.50;84.00;;;;;;5099214;27;20074;-75
2022/03/16 06:41:39;;;;;;;20.23;9.88;;;9.60;84.30;;;;;;5097725;27;20417;-75
2022/03/16 06:44:06;;;;;;;21.25;10.93;;;9.70;83.60;;;;;;5097644;27;20063;-76
2022/03/16 06:46:33;;;;;;;21.80;11.35;;;9.60;83.80;;;;;;5094148;27;20051;-75
2022/03/16 06:49:00;;;;;;;23.15;12.10;;;9.60;84.50;;;;;;5096080;27;21319;-76
2022/03/16 06:51:27;;;;;;;24.67;10.90;;;9.70;83.90;;;;;;5096916;27;20050;-78
2022/03/16 06:53:54;;;;;;;21.55;11.27;;;9.80;83.80;;;;;;5098302;28;20027;-75
2022/03/16 06:56:21;;;;;;;29.30;14.30;;;9.80;83.90;;;;;;5097455;27;20578;-76
2022/03/16 06:58:49;;;;;;;26.10;12.23;;;9.90;83.80;;;;;;5098965;27;20058;-75
2022/03/16 07:01:16;;;;;;;112.00;41.80;;;9.80;84.20;;;;;;5114574;27;20572;-75
2022/03/16 07:03:44;;;;;;;60.47;25.70;;;9.90;84.30;;;;;;5097321;27;20045;-75
2022/03/16 07:06:11;;;;;;;66.78;28.02;;;9.80;84.40;;;;;;5098864;27;20558;-75
2022/03/16 07:08:38;;;;;;;59.35;26.02;;;9.80;85.10;;;;;;5094759;27;20054;-76
2022/03/16 07:11:07;;;;;;;39.63;22.15;;;9.80;85.60;;;;;;5091090;28;20035;-75
2022/03/16 07:13:34;;;;;;;40.05;21.25;;;9.90;86.10;;;;;;5097622;27;20747;-76
2022/03/16 07:16:02;;;;;;;40.55;21.20;;;10.00;86.30;;;;;;5109984;27;20035;-75
2022/03/16 07:18:34;;;;;;;42.42;18.13;;;10.00;86.30;;;;;;5080459;27;20498;-75
2022/03/16 07:21:01;;;;;;;30.35;14.38;;;10.00;86.10;;;;;;5093848;27;20051;-75
2022/03/16 07:23:27;;;;;;;23.90;11.43;;;10.10;86.40;;;;;;5095890;27;20039;-75
2022/03/16 07:25:55;;;;;;;21.85;11.02;;;10.10;87.40;;;;;;5099648;27;20159;-75
2022/03/16 07:28:22;;;;;;;20.40;10.07;;;10.00;88.20;;;;;;5108281;27;20044;-76
2022/03/16 07:30:49;;;;;;;21.38;10.95;;;10.00;88.80;;;;;;5096978;27;20046;-76
2022/03/16 07:33:16;;;;;;;18.15;9.13;;;10.10;89.40;;;;;;5098980;27;20509;-76
2022/03/16 07:35:43;;;;;;;18.30;8.63;;;10.10;89.00;;;;;;5096303;28;20588;-76
2022/03/16 07:38:11;;;;;;;18.05;9.82;;;10.10;89.30;;;;;;5113534;27;20039;-76
2022/03/16 07:40:38;;;;;;;19.23;8.55;;;10.10;89.40;;;;;;5114281;27;20031;-76
2022/03/16 07:43:06;;;;;;;20.20;9.70;;;10.20;89.40;;;;;;5112107;28;20718;-75
2022/03/16 07:45:34;;;;;;;22.33;9.57;;;10.30;89.40;;;;;;5084981;28;20051;-75
2022/03/16 07:48:02;;;;;;;23.95;9.40;;;10.30;88.70;;;;;;5095341;28;20036;-75
2022/03/16 07:50:29;;;;;;;24.20;11.10;;;10.30;89.00;;;;;;5099499;28;20048;-75
2022/03/16 07:52:57;;;;;;;40.35;13.68;;;10.30;88.70;;;;;;5111850;28;20047;-75
2022/03/16 07:55:26;;;;;;;33.10;14.23;;;10.40;89.00;;;;;;5095193;28;20039;-75
2022/03/16 07:57:55;;;;;;;37.20;14.43;;;10.40;88.80;;;;;;5099341;28;20075;-76
2022/03/16 08:00:24;;;;;;;26.23;10.88;;;10.40;88.90;;;;;;5080993;27;20046;-75
2022/03/16 08:02:55;;;;;;;;;;;10.40;89.30;;;;;;5106212;27;20044;-75
2022/03/16 08:05:22;;;;;;;22.40;9.52;;;10.50;88.90;;;;;;5115015;27;20026;-75
2022/03/16 08:07:50;;;;;;;20.02;10.10;;;10.50;89.60;;;;;;5115070;27;20034;-75
2022/03/16 08:10:17;;;;;;;24.42;11.13;;;10.50;89.10;;;;;;5114899;27;20040;-75
2022/03/16 08:12:44;;;;;;;26.40;12.25;;;10.50;88.80;;;;;;5115526;27;20362;-75
2022/03/16 08:15:12;;;;;;;29.25;12.52;;;10.50;88.80;;;;;;5100197;27;20114;-75
2022/03/16 08:17:39;;;;;;;25.60;11.70;;;10.60;88.90;;;;;;5098681;27;20051;-75
2022/03/16 08:20:07;;;;;;;27.38;12.23;;;10.60;88.40;;;;;;5115951;27;20036;-75
2022/03/16 08:22:35;;;;;;;25.02;11.45;;;10.50;88.90;;;;;;5081019;27;20063;-75
2022/03/16 08:25:08;;;;;;;22.15;11.00;;;10.40;88.40;;;;;;5100319;27;20047;-75
2022/03/16 08:27:37;;;;;;;25.20;12.75;;;10.40;88.60;;;;;;5115849;27;20051;-75
2022/03/16 08:30:06;;;;;;;25.38;11.50;;;10.30;88.60;;;;;;5102250;27;20066;-75
2022/03/16 08:32:33;;;;;;;23.55;11.23;;;10.40;88.30;;;;;;5119508;27;20042;-76
2022/03/16 08:35:00;;;;;;;29.20;12.63;;;10.50;88.00;;;;;;5100220;27;20043;-76
2022/03/16 08:37:27;;;;;;;27.27;12.82;;;10.50;88.00;;;;;;5098507;27;20046;-75
2022/03/16 08:39:54;;;;;;;25.27;12.38;;;10.60;87.80;;;;;;5081408;27;20067;-75
2022/03/16 08:42:22;;;;;;;24.10;11.93;;;10.70;87.80;;;;;;5086721;27;20053;-75
2022/03/16 08:44:49;;;;;;;25.90;11.82;;;10.70;87.50;;;;;;5085689;27;20054;-75
2022/03/16 08:47:16;;;;;;;28.58;12.02;;;10.80;86.50;;;;;;5097888;27;20506;-75
2022/03/16 08:49:53;;;;;;;26.35;12.32;;;10.90;86.00;;;;;;5117861;27;20084;-75
2022/03/16 08:52:20;;;;;;;22.10;11.60;;;10.90;84.90;;;;;;5120410;27;20031;-75
2022/03/16 08:54:47;;;;;;;24.33;11.95;;;10.80;84.70;;;;;;5114203;27;20063;-75
2022/03/16 08:57:15;;;;;;;28.73;13.13;;;10.80;85.10;;;;;;5102511;27;20038;-76
2022/03/16 08:59:42;;;;;;;23.08;12.02;;;10.80;85.10;;;;;;5081135;27;20074;-75
2022/03/16 09:02:10;;;;;;;26.85;12.30;;;10.90;85.00;;;;;;5098240;27;20059;-75
2022/03/16 09:04:38;;;;;;;22.77;11.75;;;10.90;84.90;;;;;;5078893;27;20088;-74
2022/03/16 09:07:05;;;;;;;26.73;12.57;;;10.80;85.10;;;;;;5099180;27;20115;-75
2022/03/16 09:09:38;;;;;;;;;;;10.80;85.60;;;;;;5101786;27;20095;-75
2022/03/16 09:12:08;;;;;;;19.33;10.27;;;10.80;85.50;;;;;;5097879;27;20585;-75
2022/03/16 09:14:35;;;;;;;25.55;12.00;;;10.70;85.60;;;;;;5111932;27;20134;-75
2022/03/16 09:17:02;;;;;;;27.05;11.27;;;10.50;85.70;;;;;;5093777;27;20126;-75
2022/03/16 09:19:30;;;;;;;25.10;12.25;;;10.50;86.40;;;;;;5083500;27;20035;-75
2022/03/16 09:22:00;;;;;;;34.00;13.15;;;10.50;86.80;;;;;;5078717;27;20059;-75
2022/03/16 09:24:27;;;;;;;25.73;12.63;;;10.40;86.70;;;;;;5091330;27;20139;-75
2022/03/16 09:26:59;;;;;;;25.90;11.77;;;10.30;86.70;;;;;;5101975;27;20122;-75
2022/03/16 09:29:29;;;;;;;26.60;12.07;;;10.20;86.60;;;;;;5098373;27;20035;-76
2022/03/16 09:32:06;;;;;;;20.83;10.90;;;10.20;87.00;;;;;;5100746;27;20042;-75
2022/03/16 09:34:33;;;;;;;25.35;12.10;;;10.10;86.60;;;;;;5100438;27;20043;-75
2022/03/16 09:37:00;;;;;;;22.10;11.45;;;10.00;86.60;;;;;;5097199;27;20039;-75
2022/03/16 09:39:27;;;;;;;26.02;11.73;;;10.00;86.50;;;;;;5092950;27;20040;-75
2022/03/16 09:41:56;;;;;;;22.15;12.18;;;10.00;86.70;;;;;;5097947;27;20846;-75
2022/03/16 09:44:24;;;;;;;23.13;11.85;;;9.90;88.00;;;;;;5081065;27;20486;-75
2022/03/16 09:46:54;;;;;;;21.65;11.75;;;9.80;88.80;;;;;;5109489;27;20039;-75
2022/03/16 09:49:22;;;;;;;24.83;12.23;;;9.90;88.70;;;;;;5115840;27;20088;-75
2022/03/16 09:51:50;;;;;;;28.63;12.82;;;10.00;88.70;;;;;;5093533;27;20049;-75
2022/03/16 09:54:17;;;;;;;24.58;11.90;;;10.00;88.00;;;;;;5083353;27;20044;-75
2022/03/16 09:56:44;;;;;;;26.10;12.43;;;10.00;87.30;;;;;;5079019;27;20558;-75
2022/03/16 09:59:11;;;;;;;23.23;11.70;;;10.00;87.10;;;;;;5084319;27;20039;-75
2022/03/16 10:01:38;;;;;;;21.67;10.95;;;9.90;86.70;;;;;;5082735;27;20067;-75
2022/03/16 10:04:06;;;;;;;25.17;11.65;;;9.80;87.30;;;;;;5083072;27;20066;-75
2022/03/16 10:06:42;;;;;;;25.75;12.27;;;9.70;86.80;;;;;;5102468;27;20039;-75
2022/03/16 10:15:12;;;;;;;21.65;11.40;;;9.70;86.10;;;;;;5117671;27;20050;-75
2022/03/16 10:17:48;;;;;;;25.23;12.68;;;9.60;86.50;;;;;;5096579;27;21152;-74
2022/03/16 10:20:21;;;;;;;24.52;11.55;;;9.70;86.10;;;;;;5081206;27;20047;-75
2022/03/16 10:23:14;;;;;;;25.48;12.75;;;9.60;86.40;;;;;;5113677;27;20118;-75
2022/03/16 10:25:51;;;;;;;31.77;13.10;;;9.60;86.40;;;;;;5110070;27;20519;-76
2022/03/16 10:28:25;;;;;;;23.52;12.18;;;9.70;86.20;;;;;;5099002;27;20498;-75
2022/03/16 10:30:54;;;;;;;24.88;12.82;;;9.70;86.00;;;;;;5112854;27;20043;-75
2022/03/16 10:33:33;;;;;;;25.52;12.68;;;9.60;86.20;;;;;;5099232;27;20154;-75
2022/03/16 10:36:06;;;;;;;25.25;12.68;;;9.50;86.90;;;;;;5081118;27;20626;-75
2022/03/16 10:38:38;;;;;;;23.55;12.57;;;9.50;87.90;;;;;;5097449;27;20096;-75
2022/03/16 10:46:57;;;;;;;24.58;11.55;;;9.50;87.20;;;;;;5113093;27;20055;-75
2022/03/16 10:49:30;;;;;;;21.90;11.00;;;9.50;87.60;;;;;;5098309;27;20134;-75
2022/03/16 10:52:05;;;;;;;26.48;11.52;;;9.40;87.90;;;;;;5113770;27;20356;-75
2022/03/16 10:54:34;;;;;;;27.60;12.02;;;9.50;87.90;;;;;;5115174;27;20046;-75
2022/03/16 10:57:05;;;;;;;23.98;12.18;;;9.40;88.00;;;;;;5094582;28;20050;-75
2022/03/16 10:59:34;;;;;;;27.13;11.98;;;9.50;88.10;;;;;;5108152;27;20461;-75
2022/03/16 11:02:04;;;;;;;27.45;12.32;;;9.60;87.60;;;;;;5076401;27;20063;-75
2022/03/16 11:04:34;;;;;;;26.45;13.05;;;9.50;88.20;;;;;;5115447;27;20055;-75
2022/03/16 11:07:04;;;;;;;25.88;13.10;;;9.50;88.20;;;;;;5111406;27;20042;-75
2022/03/16 11:09:32;;;;;;;25.63;12.68;;;9.60;88.30;;;;;;5072139;27;20039;-75
2022/03/16 11:14:51;;;;;;;26.08;12.93;;;9.50;88.70;;;;;;5096667;27;20130;-75
2022/03/16 11:17:19;;;;;;;27.92;13.63;;;9.50;88.70;;;;;;5110428;27;20406;-75
2022/03/16 11:19:51;;;;;;;28.25;13.15;;;9.60;88.70;;;;;;5110213;27;20039;-75
2022/03/16 11:22:29;;;;;;;31.10;13.85;;;9.60;88.70;;;;;;5097567;27;20043;-75
2022/03/16 11:25:10;;;;;;;27.15;13.80;;;9.40;89.30;;;;;;5109459;27;20820;-75
2022/03/16 11:27:52;;;;;;;29.67;14.05;;;9.40;89.80;;;;;;5111115;27;20039;-75
2022/03/16 11:30:25;;;;;;;28.02;12.60;;;9.40;89.90;;;;;;5113869;27;20454;-75
2022/03/16 11:32:56;;;;;;;;;;;9.40;89.30;;;;;;5080997;27;21045;-75
2022/03/16 11:35:30;;;;;;;26.83;11.63;;;9.50;89.30;;;;;;5095293;27;19924;-75
2022/03/16 11:38:09;;;;;;;28.40;13.10;;;9.60;88.60;;;;;;5095438;27;20051;-75
2022/03/16 11:40:39;;;;;;;23.40;11.93;;;9.70;88.00;;;;;;5088314;28;20058;-75
2022/03/16 11:43:11;;;;;;;25.98;12.20;;;9.60;88.30;;;;;;5097499;27;20058;-75
2022/03/16 11:45:51;;;;;;;27.67;12.30;;;9.60;88.50;;;;;;5111066;28;20047;-75
2022/03/16 11:48:37;;;;;;;25.75;12.90;;;9.50;88.80;;;;;;5096157;28;20067;-75
2022/03/16 11:51:13;;;;;;;24.33;11.52;;;9.60;88.30;;;;;;5088957;28;20047;-75
2022/03/16 11:53:47;;;;;;;23.10;10.85;;;9.50;87.60;;;;;;5093240;28;20039;-75
2022/03/16 11:56:29;;;;;;;23.80;11.10;;;9.50;87.80;;;;;;5107740;27;20051;-75
2022/03/16 11:59:02;;;;;;;26.25;13.65;;;9.50;88.00;;;;;;5093376;28;20162;-75
2022/03/16 12:01:30;;;;;;;22.05;11.27;;;9.60;88.30;;;;;;5084701;28;20088;-75
2022/03/16 12:04:08;;;;;;;22.30;11.00;;;9.60;88.00;;;;;;5080022;28;20122;-75
2022/03/16 12:06:50;;;;;;;25.05;11.65;;;9.70;87.80;;;;;;5080486;28;20051;-75
2022/03/16 12:09:22;;;;;;;25.83;11.60;;;9.70;87.00;;;;;;5096797;28;20051;-75
2022/03/16 12:15:11;;;;;;;24.73;11.38;;;9.60;86.90;;;;;;5040143;28;20491;-75
2022/03/16 12:17:40;;;;;;;27.27;12.15;;;9.70;86.20;;;;;;5091147;28;20043;-75
2022/03/16 12:20:15;;;;;;;22.23;11.65;;;9.60;86.70;;;;;;5078823;28;20794;-75
2022/03/16 12:22:46;;;;;;;24.80;11.25;;;9.60;86.40;;;;;;5110476;28;20039;-75
2022/03/16 12:25:26;;;;;;;31.63;13.48;;;9.50;86.40;;;;;;5076901;28;20047;-75
2022/03/16 12:31:01;;;;;;;29.25;12.88;;;9.50;87.00;;;;;;5113732;28;20040;-75
2022/03/16 12:33:37;;;;;;;24.50;11.52;;;9.50;87.20;;;;;;5111763;28;20043;-75
2022/03/16 12:36:13;;;;;;;25.13;12.40;;;9.60;86.10;;;;;;5112779;28;20131;-75
2022/03/16 12:38:47;;;;;;;25.85;12.55;;;9.60;86.10;;;;;;5084091;28;20115;-75
2022/03/16 12:44:16;;;;;;;23.83;11.68;;;9.60;85.50;;;;;;5058816;28;20438;-75
2022/03/16 12:47:14;;;;;;;24.55;11.35;;;9.60;85.40;;;;;;5094981;27;20512;-75
2022/03/16 12:49:43;;;;;;;24.13;11.23;;;9.60;85.30;;;;;;5092347;27;20036;-75
2022/03/16 12:52:11;;;;;;;21.08;10.32;;;9.70;84.70;;;;;;5115609;27;20112;-75
2022/03/16 12:54:40;;;;;;;22.20;10.70;;;9.50;83.60;;;;;;5097641;27;20138;-75
2022/03/16 12:57:12;;;;;;;21.67;9.60;;;9.40;84.30;;;;;;5111991;27;20046;-75
2022/03/16 12:59:48;;;;;;;24.20;11.20;;;9.30;84.50;;;;;;5098673;27;20043;-75
2022/03/16 13:02:27;;;;;;;20.38;10.00;;;9.40;84.50;;;;;;5100737;27;20122;-75
2022/03/16 13:04:58;;;;;;;19.35;9.30;;;9.50;84.10;;;;;;5086035;27;20093;-75
2022/03/16 13:07:27;;;;;;;19.57;9.60;;;9.50;83.50;;;;;;5099708;27;20050;-75
2022/03/16 13:09:54;;;;;;;22.95;9.77;;;9.60;82.50;;;;;;5083941;27;20038;-75
2022/03/16 13:12:25;;;;;;;25.88;10.20;;;9.80;82.00;;;;;;5117113;27;20043;-74